Time;durP1;ratioP1;P1;durP2;ratioP2;P2;SDS_P1;SDS_P2;PMS_P1;PMS_P2;Temp;Humidity;BMP_temperature;BMP_pressure;BME280_temperature;BME280_humidity;BME280_pressure;Samples;Min_cycle;Max_cycle;Signal;HPM_P1;HPM_P2
2021/09/15 00:00:42;;;;;;;15.45;6.75;;;;;;;;;;4968301;28;20415;-78
2021/09/15 00:03:09;;;;;;;15.52;6.38;;;;;;;;;;4966898;28;20542;-77
2021/09/15 00:05:36;;;;;;;17.83;7.18;;;;;;;;;;4968504;28;20057;-78
2021/09/15 00:08:04;;;;;;;17.88;7.90;;;;;;;;;;4968126;28;20138;-78
2021/09/15 00:10:31;;;;;;;20.92;7.55;;;;;;;;;;4968389;28;20142;-78
2021/09/15 00:12:58;;;;;;;21.65;9.20;;;;;;;;;;4967691;28;20134;-78
2021/09/15 00:15:25;;;;;;;33.78;8.07;;;;;;;;;;4968702;28;20042;-77
2021/09/15 00:17:53;;;;;;;19.35;8.25;;;;;;;;;;4968556;28;20146;-77
2021/09/15 00:20:20;;;;;;;25.77;8.43;;;;;;;;;;4965589;28;20062;-78
2021/09/15 00:22:47;;;;;;;18.65;8.75;;;;;;;;;;4966815;28;20142;-78
2021/09/15 00:25:14;;;;;;;26.30;8.88;;;;;;;;;;4968579;28;20047;-78
2021/09/15 00:27:41;;;;;;;20.40;9.18;;;;;;;;;;4969484;28;20082;-78
2021/09/15 00:30:09;;;;;;;25.08;9.50;;;;;;;;;;4964196;28;20078;-77
2021/09/15 00:32:36;;;;;;;18.02;8.88;;;;;;;;;;4952382;28;20145;-77
2021/09/15 00:35:06;;;;;;;28.33;9.85;;;;;;;;;;4954140;28;20082;-77
2021/09/15 00:37:33;;;;;;;19.23;9.80;;;;;;;;;;4970597;28;20086;-78
2021/09/15 00:40:01;;;;;;;23.40;11.35;;;;;;;;;;4968370;28;20057;-78
2021/09/15 00:42:28;;;;;;;29.15;10.63;;;;;;;;;;4971081;28;20555;-78
2021/09/15 00:44:56;;;;;;;31.58;11.48;;;;;;;;;;4971628;28;20857;-78
2021/09/15 00:47:23;;;;;;;25.77;10.98;;;;;;;;;;4971372;28;20500;-78
2021/09/15 00:49:50;;;;;;;34.40;12.13;;;;;;;;;;4967821;28;20101;-78
2021/09/15 00:52:18;;;;;;;22.40;11.27;;;;;;;;;;4963790;28;20070;-78
2021/09/15 00:54:45;;;;;;;27.05;11.32;;;;;;;;;;4971314;28;20145;-78
2021/09/15 00:57:12;;;;;;;24.25;11.77;;;;;;;;;;4966168;28;20043;-77
2021/09/15 00:59:40;;;;;;;23.50;12.15;;;;;;;;;;4964501;28;20499;-78
2021/09/15 01:02:07;;;;;;;19.45;10.60;;;;;;;;;;4970394;28;20081;-78
2021/09/15 01:04:34;;;;;;;23.25;11.07;;;;;;;;;;4970873;28;20050;-78
2021/09/15 01:07:02;;;;;;;28.17;12.57;;;;;;;;;;4969618;28;20142;-78
2021/09/15 01:09:30;;;;;;;27.05;11.90;;;;;;;;;;4970625;28;20174;-78
2021/09/15 01:11:59;;;;;;;25.83;11.82;;;;;;;;;;4971067;28;20114;-77
2021/09/15 01:14:27;;;;;;;21.65;11.25;;;;;;;;;;4969017;28;20452;-78
2021/09/15 01:16:55;;;;;;;29.65;12.20;;;;;;;;;;4971069;28;20157;-77
2021/09/15 01:19:23;;;;;;;32.88;11.80;;;;;;;;;;4969794;28;20523;-77
2021/09/15 01:21:51;;;;;;;27.00;12.38;;;;;;;;;;4964353;28;20457;-77
2021/09/15 01:24:19;;;;;;;24.50;11.80;;;;;;;;;;4972722;28;20050;-78
2021/09/15 01:26:46;;;;;;;27.67;12.68;;;;;;;;;;4974355;28;20138;-78
2021/09/15 01:29:18;;;;;;;23.75;11.35;;;;;;;;;;4972006;28;20647;-77
2021/09/15 01:31:57;;;;;;;38.30;12.32;;;;;;;;;;4970773;28;20137;-78
2021/09/15 01:34:25;;;;;;;26.35;11.52;;;;;;;;;;4969918;28;20086;-78
2021/09/15 01:36:52;;;;;;;26.63;12.55;;;;;;;;;;4969261;28;20122;-78
2021/09/15 01:39:19;;;;;;;26.90;12.10;;;;;;;;;;4970840;28;20222;-78
2021/09/15 01:41:47;;;;;;;33.22;12.98;;;;;;;;;;4969233;28;20134;-78
2021/09/15 01:44:14;;;;;;;26.92;11.88;;;;;;;;;;4969085;28;20607;-78
2021/09/15 01:46:41;;;;;;;31.60;12.88;;;;;;;;;;4970521;28;20142;-78
2021/09/15 01:49:08;;;;;;;26.75;12.27;;;;;;;;;;4969337;28;20086;-78
2021/09/15 01:51:40;;;;;;;26.33;11.93;;;;;;;;;;4970794;28;20118;-78
2021/09/15 01:54:07;;;;;;;24.20;11.98;;;;;;;;;;4968331;28;20134;-78
2021/09/15 01:56:34;;;;;;;30.83;13.10;;;;;;;;;;4972122;28;20107;-78
2021/09/15 01:59:02;;;;;;;26.40;11.57;;;;;;;;;;4971962;28;20663;-78
2021/09/15 02:01:29;;;;;;;27.00;12.32;;;;;;;;;;4966582;28;20043;-78
2021/09/15 02:03:57;;;;;;;22.63;11.82;;;;;;;;;;4970717;28;20058;-78
2021/09/15 02:06:24;;;;;;;31.55;11.90;;;;;;;;;;4970718;28;20149;-78
2021/09/15 02:08:51;;;;;;;28.33;12.02;;;;;;;;;;4969052;28;20133;-78
2021/09/15 02:11:18;;;;;;;24.38;12.23;;;;;;;;;;4969315;28;20555;-78
2021/09/15 02:13:45;;;;;;;30.90;12.55;;;;;;;;;;4968787;28;20400;-78
2021/09/15 02:16:12;;;;;;;24.60;11.43;;;;;;;;;;4969805;28;20597;-78
2021/09/15 02:18:40;;;;;;;26.67;12.10;;;;;;;;;;4969861;28;20129;-78
2021/09/15 02:21:08;;;;;;;28.02;12.48;;;;;;;;;;4967140;28;20047;-78
2021/09/15 02:23:35;;;;;;;28.08;11.77;;;;;;;;;;4969285;28;20082;-78
2021/09/15 02:26:03;;;;;;;23.90;11.05;;;;;;;;;;4969360;28;20063;-78
2021/09/15 02:28:30;;;;;;;24.80;11.23;;;;;;;;;;4960636;28;20670;-78
2021/09/15 02:30:57;;;;;;;33.28;12.70;;;;;;;;;;4969405;28;20504;-78
2021/09/15 02:33:24;;;;;;;20.98;10.57;;;;;;;;;;4968303;28;20050;-78
2021/09/15 02:35:51;;;;;;;22.48;11.13;;;;;;;;;;4968701;28;20047;-78
2021/09/15 02:38:18;;;;;;;27.73;10.77;;;;;;;;;;4969784;28;20105;-78
2021/09/15 02:40:45;;;;;;;25.75;11.45;;;;;;;;;;4969396;28;20461;-78
2021/09/15 02:43:13;;;;;;;23.27;11.32;;;;;;;;;;4969953;28;20161;-78
2021/09/15 02:45:40;;;;;;;23.83;11.73;;;;;;;;;;4970629;28;20164;-78
2021/09/15 02:48:07;;;;;;;32.00;11.65;;;;;;;;;;4966221;28;20058;-77
2021/09/15 02:50:34;;;;;;;24.27;11.30;;;;;;;;;;4961369;28;20053;-77
2021/09/15 02:53:02;;;;;;;25.98;10.70;;;;;;;;;;4969307;28;20138;-77
2021/09/15 02:55:29;;;;;;;29.45;12.32;;;;;;;;;;4970298;28;20735;-77
2021/09/15 02:57:56;;;;;;;24.15;11.82;;;;;;;;;;4966954;28;20328;-77
2021/09/15 03:00:23;;;;;;;23.00;10.95;;;;;;;;;;4971274;28;20054;-77
2021/09/15 03:02:50;;;;;;;24.13;10.93;;;;;;;;;;4968794;28;20055;-77
2021/09/15 03:05:17;;;;;;;23.05;10.60;;;;;;;;;;4968790;28;20089;-77
2021/09/15 03:07:44;;;;;;;22.30;10.65;;;;;;;;;;4969373;28;20050;-78
2021/09/15 03:10:14;;;;;;;23.65;11.77;;;;;;;;;;4969111;28;20138;-78
2021/09/15 03:12:43;;;;;;;25.08;11.65;;;;;;;;;;4967594;28;20050;-77
2021/09/15 03:15:10;;;;;;;25.05;11.63;;;;;;;;;;4968572;28;20047;-77
2021/09/15 03:17:39;;;;;;;30.45;11.43;;;;;;;;;;4967984;28;20157;-77
2021/09/15 03:20:07;;;;;;;23.80;11.00;;;;;;;;;;4967900;28;20134;-78
2021/09/15 03:22:34;;;;;;;21.85;10.43;;;;;;;;;;4966762;28;20138;-77
2021/09/15 03:25:02;;;;;;;20.77;9.77;;;;;;;;;;4968273;28;20050;-77
2021/09/15 03:27:29;;;;;;;24.50;11.55;;;;;;;;;;4967845;28;20085;-78
2021/09/15 03:29:56;;;;;;;26.08;11.00;;;;;;;;;;4967421;28;20161;-78
2021/09/15 03:32:23;;;;;;;17.25;10.02;;;;;;;;;;4966724;28;20062;-78
2021/09/15 03:34:50;;;;;;;28.98;12.52;;;;;;;;;;4968729;28;20146;-78
2021/09/15 03:37:17;;;;;;;25.55;11.23;;;;;;;;;;4967239;28;20045;-77
2021/09/15 03:39:44;;;;;;;21.30;11.13;;;;;;;;;;4968813;28;20158;-78
2021/09/15 03:42:12;;;;;;;29.17;11.20;;;;;;;;;;4967959;28;20130;-77
2021/09/15 03:44:39;;;;;;;29.83;10.63;;;;;;;;;;4968147;28;20106;-77
2021/09/15 03:47:06;;;;;;;18.15;9.75;;;;;;;;;;4968373;28;20130;-78
2021/09/15 03:49:33;;;;;;;21.45;11.00;;;;;;;;;;4968314;28;20051;-77
2021/09/15 03:52:00;;;;;;;27.08;11.45;;;;;;;;;;4968345;28;20133;-78
2021/09/15 03:54:28;;;;;;;23.33;10.40;;;;;;;;;;4967838;28;20134;-78
2021/09/15 03:56:55;;;;;;;24.63;10.88;;;;;;;;;;4966548;28;20082;-77
2021/09/15 03:59:22;;;;;;;26.33;11.05;;;;;;;;;;4966833;28;20774;-77
2021/09/15 04:01:49;;;;;;;19.88;10.15;;;;;;;;;;4967846;28;20777;-77
2021/09/15 04:04:17;;;;;;;22.90;11.07;;;;;;;;;;4971858;28;20057;-77
2021/09/15 04:06:44;;;;;;;27.20;11.63;;;;;;;;;;4970165;28;20134;-77
2021/09/15 04:09:11;;;;;;;24.85;11.60;;;;;;;;;;4970978;28;20055;-77
2021/09/15 04:11:38;;;;;;;24.27;10.95;;;;;;;;;;4970335;28;20146;-77
2021/09/15 04:14:05;;;;;;;22.52;10.43;;;;;;;;;;4960882;28;20057;-77
2021/09/15 04:16:32;;;;;;;27.40;11.32;;;;;;;;;;4970058;28;20093;-77
2021/09/15 04:19:00;;;;;;;27.55;11.98;;;;;;;;;;4965840;28;20058;-77
2021/09/15 04:21:27;;;;;;;27.15;11.00;;;;;;;;;;4962332;28;20133;-77
2021/09/15 04:24:14;;;;;;;25.08;11.98;;;;;;;;;;4963959;28;20146;-78
2021/09/15 04:32:15;;;;;;;23.60;12.27;;;;;;;;;;4961972;28;20535;-77
2021/09/15 04:34:43;;;;;;;27.98;11.75;;;;;;;;;;4958999;28;20130;-77
2021/09/15 04:37:10;;;;;;;31.23;12.48;;;;;;;;;;4968273;28;20830;-78
2021/09/15 04:39:37;;;;;;;30.73;12.88;;;;;;;;;;4970379;28;20051;-77
2021/09/15 04:42:04;;;;;;;29.70;12.73;;;;;;;;;;4969077;28;20615;-77
2021/09/15 04:44:31;;;;;;;31.23;13.95;;;;;;;;;;4967715;28;20153;-78
2021/09/15 04:46:58;;;;;;;27.23;13.15;;;;;;;;;;4962443;28;20150;-77
2021/09/15 04:49:25;;;;;;;27.85;13.50;;;;;;;;;;4962749;28;20133;-78
2021/09/15 04:51:53;;;;;;;28.38;12.85;;;;;;;;;;4964213;28;20063;-78
2021/09/15 04:54:20;;;;;;;27.02;13.35;;;;;;;;;;4967718;28;20059;-79
2021/09/15 04:56:47;;;;;;;32.13;14.10;;;;;;;;;;4964308;28;20043;-77
2021/09/15 04:59:14;;;;;;;29.30;13.82;;;;;;;;;;4964819;28;20138;-78
2021/09/15 05:01:42;;;;;;;33.72;14.05;;;;;;;;;;4966269;28;20349;-79
2021/09/15 05:04:09;;;;;;;31.02;14.07;;;;;;;;;;4965646;28;20126;-80
2021/09/15 05:06:36;;;;;;;32.75;14.75;;;;;;;;;;4978623;28;20930;-78
2021/09/15 05:09:04;;;;;;;31.10;14.20;;;;;;;;;;4965450;28;20054;-79
2021/09/15 05:11:31;;;;;;;40.47;15.38;;;;;;;;;;4975450;28;20070;-80
2021/09/15 05:13:59;;;;;;;29.33;15.05;;;;;;;;;;4972515;28;20417;-80
2021/09/15 05:16:26;;;;;;;30.38;14.68;;;;;;;;;;4974427;28;20078;-81
2021/09/15 05:18:53;;;;;;;40.15;15.55;;;;;;;;;;4973488;28;20071;-80
2021/09/15 05:21:20;;;;;;;33.67;14.95;;;;;;;;;;4968325;28;20074;-78
2021/09/15 05:23:47;;;;;;;28.92;15.82;;;;;;;;;;4972755;28;20074;-78
2021/09/15 05:26:15;;;;;;;33.03;15.57;;;;;;;;;;4970436;28;20058;-77
2021/09/15 05:28:42;;;;;;;31.58;15.35;;;;;;;;;;4961621;28;20051;-76
2021/09/15 05:31:09;;;;;;;31.73;15.48;;;;;;;;;;4964549;28;20123;-75
2021/09/15 05:33:36;;;;;;;33.85;15.45;;;;;;;;;;4962756;28;20162;-78
2021/09/15 05:36:07;;;;;;;40.97;14.80;;;;;;;;;;4970950;28;20101;-82
2021/09/15 05:38:36;;;;;;;32.05;14.98;;;;;;;;;;4970332;28;20050;-78
2021/09/15 05:41:04;;;;;;;39.00;15.18;;;;;;;;;;4971845;28;20180;-78
2021/09/15 05:43:33;;;;;;;38.25;16.23;;;;;;;;;;4972824;28;20078;-78
2021/09/15 05:46:02;;;;;;;37.38;15.80;;;;;;;;;;4965290;28;20043;-78
2021/09/15 05:48:31;;;;;;;38.67;16.27;;;;;;;;;;4960800;28;20082;-78
2021/09/15 05:51:00;;;;;;;34.53;16.70;;;;;;;;;;4970708;28;20062;-78
2021/09/15 05:53:28;;;;;;;37.85;16.95;;;;;;;;;;4973687;28;20054;-77
2021/09/15 05:55:55;;;;;;;31.90;15.45;;;;;;;;;;4974229;28;20059;-77
2021/09/15 05:58:22;;;;;;;38.60;15.93;;;;;;;;;;4971659;28;20042;-81
2021/09/15 06:00:50;;;;;;;30.65;15.25;;;;;;;;;;4973492;28;20491;-82
2021/09/15 06:03:17;;;;;;;36.13;16.42;;;;;;;;;;4972013;28;20135;-82
2021/09/15 06:05:44;;;;;;;38.58;15.93;;;;;;;;;;4973752;28;20094;-82
2021/09/15 06:08:11;;;;;;;31.95;16.42;;;;;;;;;;4972760;28;20082;-82
2021/09/15 06:10:48;;;;;;;32.75;14.88;;;;;;;;;;4973362;28;20085;-83
2021/09/15 06:13:15;;;;;;;27.70;15.25;;;;;;;;;;4972640;28;20090;-82
2021/09/15 06:15:43;;;;;;;33.30;15.93;;;;;;;;;;4972160;28;20153;-82
2021/09/15 06:18:12;;;;;;;25.50;15.95;;;;;;;;;;4972362;28;20687;-83
2021/09/15 06:20:40;;;;;;;34.92;15.65;;;;;;;;;;4972335;28;20735;-83
2021/09/15 06:23:07;;;;;;;32.95;16.67;;;;;;;;;;4973091;28;20614;-83
2021/09/15 06:25:36;;;;;;;25.63;15.38;;;;;;;;;;4972687;28;20133;-83
2021/09/15 06:28:03;;;;;;;33.45;14.80;;;;;;;;;;4970120;28;20130;-82
2021/09/15 06:30:30;;;;;;;27.25;14.95;;;;;;;;;;4967138;28;20142;-83
2021/09/15 06:32:57;;;;;;;35.75;15.88;;;;;;;;;;4973207;28;20584;-82
2021/09/15 06:35:25;;;;;;;31.90;15.45;;;;;;;;;;4973761;28;20082;-82
2021/09/15 06:37:53;;;;;;;38.22;16.67;;;;;;;;;;4972641;28;20082;-82
2021/09/15 06:40:20;;;;;;;29.90;16.42;;;;;;;;;;4973046;28;20825;-82
2021/09/15 06:42:47;;;;;;;32.80;15.88;;;;;;;;;;4973148;28;20087;-82
2021/09/15 06:45:14;;;;;;;28.88;15.93;;;;;;;;;;4973217;28;20134;-83
2021/09/15 06:47:42;;;;;;;28.23;16.23;;;;;;;;;;4965404;28;20070;-82
2021/09/15 06:50:10;;;;;;;36.92;15.30;;;;;;;;;;4968256;28;20090;-82
2021/09/15 06:52:37;;;;;;;41.05;15.80;;;;;;;;;;4973187;28;20051;-82
2021/09/15 06:55:05;;;;;;;34.75;16.08;;;;;;;;;;4972362;28;20157;-82
2021/09/15 06:57:32;;;;;;;29.38;16.88;;;;;;;;;;4967381;28;20130;-82
2021/09/15 07:00:01;;;;;;;28.40;16.95;;;;;;;;;;4970519;28;20835;-82
2021/09/15 07:02:28;;;;;;;32.03;15.98;;;;;;;;;;4972227;28;20187;-82
2021/09/15 07:04:55;;;;;;;26.17;15.02;;;;;;;;;;4972668;28;20133;-82
2021/09/15 07:07:22;;;;;;;27.95;14.98;;;;;;;;;;4971344;28;20456;-83
2021/09/15 07:09:49;;;;;;;34.03;15.48;;;;;;;;;;4971052;28;20487;-82
2021/09/15 07:12:17;;;;;;;28.35;14.98;;;;;;;;;;4972590;28;20051;-82
2021/09/15 07:14:44;;;;;;;30.08;15.57;;;;;;;;;;4972463;28;20141;-82
2021/09/15 07:17:11;;;;;;;30.48;15.70;;;;;;;;;;4962652;28;20736;-82
2021/09/15 07:19:38;;;;;;;33.03;15.63;;;;;;;;;;4972468;28;20174;-82
2021/09/15 07:22:05;;;;;;;32.80;15.63;;;;;;;;;;4972313;28;20165;-82
2021/09/15 07:24:33;;;;;;;31.00;16.45;;;;;;;;;;4972490;28;20105;-82
2021/09/15 07:27:00;;;;;;;35.95;16.60;;;;;;;;;;4970606;28;20093;-82
2021/09/15 07:29:30;;;;;;;34.70;16.30;;;;;;;;;;4959083;28;20078;-82
2021/09/15 07:31:57;;;;;;;29.77;15.13;;;;;;;;;;4961834;28;20061;-82
2021/09/15 07:34:24;;;;;;;32.90;16.73;;;;;;;;;;4971769;28;20100;-82
2021/09/15 07:36:52;;;;;;;34.53;15.60;;;;;;;;;;4972122;28;20082;-83
2021/09/15 07:39:19;;;;;;;27.88;16.20;;;;;;;;;;4972087;28;20137;-82
2021/09/15 07:41:52;;;;;;;28.55;15.82;;;;;;;;;;4970220;28;20129;-82
2021/09/15 07:44:19;;;;;;;27.38;15.40;;;;;;;;;;4971182;28;20081;-82
2021/09/15 07:46:46;;;;;;;31.17;16.85;;;;;;;;;;4972053;28;20126;-82
2021/09/15 07:49:14;;;;;;;26.85;16.08;;;;;;;;;;4953703;28;20544;-82
2021/09/15 07:51:41;;;;;;;32.35;16.30;;;;;;;;;;4952622;29;20766;-83
2021/09/15 07:54:08;;;;;;;34.75;16.27;;;;;;;;;;4956603;28;20061;-83
2021/09/15 07:56:35;;;;;;;35.25;16.42;;;;;;;;;;4971403;28;20129;-82
2021/09/15 07:59:04;;;;;;;31.25;16.23;;;;;;;;;;4962771;28;20558;-82
2021/09/15 08:01:31;;;;;;;29.10;16.95;;;;;;;;;;4959282;28;20058;-83
2021/09/15 08:03:59;;;;;;;32.42;15.60;;;;;;;;;;4967306;28;20059;-82
2021/09/15 08:06:26;;;;;;;38.85;16.00;;;;;;;;;;4957898;28;20043;-81
2021/09/15 08:09:05;;;;;;;27.85;15.90;;;;;;;;;;4971526;28;20700;-83
2021/09/15 08:11:33;;;;;;;29.33;15.38;;;;;;;;;;4971320;28;20136;-82
2021/09/15 08:14:01;;;;;;;31.33;16.02;;;;;;;;;;4971047;28;20082;-83
2021/09/15 08:16:28;;;;;;;30.40;16.90;;;;;;;;;;4966092;28;20507;-82
2021/09/15 08:18:56;;;;;;;32.03;16.23;;;;;;;;;;4967906;28;20051;-82
2021/09/15 08:21:38;;;;;;;30.73;15.70;;;;;;;;;;4971266;28;20512;-82
2021/09/15 08:24:05;;;;;;;34.58;15.70;;;;;;;;;;4970223;28;20133;-82
2021/09/15 08:26:39;;;;;;;29.30;16.63;;;;;;;;;;4969981;28;20102;-82
2021/09/15 08:29:06;;;;;;;27.20;15.18;;;;;;;;;;4961974;28;20559;-82
2021/09/15 08:31:34;;;;;;;32.58;15.95;;;;;;;;;;4951729;29;20098;-82
2021/09/15 08:34:01;;;;;;;37.30;16.08;;;;;;;;;;4953833;28;20850;-83
2021/09/15 08:36:28;;;;;;;28.20;15.68;;;;;;;;;;4957826;28;20078;-82
2021/09/15 08:38:55;;;;;;;24.58;15.32;;;;;;;;;;4971483;28;20146;-82
2021/09/15 08:41:24;;;;;;;25.13;13.20;;;;;;;;;;4961960;28;20465;-83
2021/09/15 08:43:52;;;;;;;28.70;14.70;;;;;;;;;;4969759;28;20415;-82
2021/09/15 08:46:20;;;;;;;31.35;16.17;;;;;;;;;;4971157;28;20086;-82
2021/09/15 08:48:47;;;;;;;29.27;15.40;;;;;;;;;;4973259;28;20651;-82
2021/09/15 08:51:16;;;;;;;27.30;14.57;;;;;;;;;;4975421;28;20054;-83
2021/09/15 08:53:45;;;;;;;27.60;16.35;;;;;;;;;;4975131;28;20057;-82
2021/09/15 08:56:16;;;;;;;24.83;14.52;;;;;;;;;;4972666;28;20102;-82
2021/09/15 08:58:43;;;;;;;39.03;15.50;;;;;;;;;;4963879;28;20134;-82
2021/09/15 09:01:13;;;;;;;26.73;14.63;;;;;;;;;;4959952;28;20074;-82
2021/09/15 09:03:41;;;;;;;29.08;14.05;;;;;;;;;;4973373;28;20054;-82
2021/09/15 09:06:13;;;;;;;29.90;14.45;;;;;;;;;;4974285;28;20078;-82
2021/09/15 09:08:41;;;;;;;28.50;15.30;;;;;;;;;;4975090;28;20141;-82
2021/09/15 09:11:09;;;;;;;23.60;14.20;;;;;;;;;;4974518;28;20224;-82
2021/09/15 09:13:48;;;;;;;22.48;14.48;;;;;;;;;;4974378;28;20138;-82
2021/09/15 09:16:17;;;;;;;23.45;13.65;;;;;;;;;;4966535;28;20103;-82
2021/09/15 09:18:59;;;;;;;21.58;14.07;;;;;;;;;;4960155;28;20138;-82
2021/09/15 09:21:30;;;;;;;24.13;14.48;;;;;;;;;;4955106;29;20483;-82
2021/09/15 09:23:58;;;;;;;21.00;13.10;;;;;;;;;;4955750;29;20083;-82
2021/09/15 09:26:44;;;;;;;22.75;13.15;;;;;;;;;;4963137;28;20081;-83
2021/09/15 09:29:12;;;;;;;;;;;;;;;;;;4963772;28;20142;-83
2021/09/15 09:31:39;;;;;;;29.63;13.98;;;;;;;;;;4961894;28;19969;-83
2021/09/15 09:34:08;;;;;;;26.50;13.52;;;;;;;;;;4972891;28;20137;-83
2021/09/15 09:36:35;;;;;;;27.02;13.70;;;;;;;;;;4972540;28;20090;-83
2021/09/15 09:39:10;;;;;;;29.25;14.85;;;;;;;;;;4973958;28;20133;-83
2021/09/15 09:41:37;;;;;;;27.42;13.45;;;;;;;;;;4974418;28;20085;-83
2021/09/15 09:44:04;;;;;;;28.75;14.50;;;;;;;;;;4973729;28;20046;-83
2021/09/15 09:46:33;;;;;;;33.28;15.48;;;;;;;;;;4969521;28;20056;-83
2021/09/15 09:49:02;;;;;;;26.20;16.05;;;;;;;;;;4971566;28;20066;-83
2021/09/15 09:51:31;;;;;;;24.13;14.40;;;;;;;;;;4973102;28;20085;-83
2021/09/15 09:54:14;;;;;;;23.88;14.90;;;;;;;;;;4973908;28;20059;-83
2021/09/15 09:56:42;;;;;;;22.52;14.25;;;;;;;;;;4971916;28;20693;-84
2021/09/15 09:59:10;;;;;;;25.77;14.95;;;;;;;;;;4964465;28;20121;-83
2021/09/15 10:02:01;;;;;;;26.23;14.55;;;;;;;;;;4972770;28;20526;-83
2021/09/15 10:04:28;;;;;;;24.40;14.70;;;;;;;;;;4964702;28;20118;-83
2021/09/15 10:06:59;;;;;;;21.40;14.30;;;;;;;;;;4973309;28;20397;-83
2021/09/15 10:09:26;;;;;;;22.48;13.07;;;;;;;;;;4972270;28;20432;-83
2021/09/15 10:11:55;;;;;;;20.35;13.02;;;;;;;;;;4972095;28;20047;-83
2021/09/15 10:14:49;;;;;;;30.02;15.43;;;;;;;;;;4972915;28;20439;-83
2021/09/15 10:17:20;;;;;;;27.98;14.20;;;;;;;;;;4969713;28;20062;-83
2021/09/15 10:19:52;;;;;;;26.98;15.00;;;;;;;;;;4952710;29;20500;-82
2021/09/15 10:22:29;;;;;;;28.92;14.57;;;;;;;;;;4967236;28;20085;-82
2021/09/15 10:24:58;;;;;;;26.98;13.90;;;;;;;;;;4972537;28;20051;-82
2021/09/15 10:27:27;;;;;;;24.88;13.05;;;;;;;;;;4973491;28;20074;-82
2021/09/15 10:30:06;;;;;;;29.52;13.77;;;;;;;;;;4968310;28;20051;-83
2021/09/15 10:32:34;;;;;;;19.55;14.25;;;;;;;;;;4973079;28;20074;-83
2021/09/15 10:35:05;;;;;;;28.05;13.98;;;;;;;;;;4972978;28;20058;-83
2021/09/15 10:37:32;;;;;;;22.42;15.60;;;;;;;;;;4971706;28;20489;-85
2021/09/15 10:40:10;;;;;;;26.85;15.82;;;;;;;;;;4971241;28;20070;-83
2021/09/15 10:42:46;;;;;;;24.40;13.77;;;;;;;;;;4968778;28;20137;-83
2021/09/15 10:45:14;;;;;;;25.15;14.18;;;;;;;;;;4972061;28;20479;-83
2021/09/15 10:47:43;;;;;;;26.23;13.32;;;;;;;;;;4968225;28;20073;-83
2021/09/15 10:50:13;;;;;;;23.83;13.48;;;;;;;;;;4972303;28;20133;-83
2021/09/15 10:52:42;;;;;;;22.30;14.63;;;;;;;;;;4973503;28;20145;-83
2021/09/15 10:55:35;;;;;;;26.23;14.38;;;;;;;;;;4973814;28;20057;-83
2021/09/15 10:58:10;;;;;;;30.83;13.65;;;;;;;;;;4958707;28;20102;-83
2021/09/15 11:00:57;;;;;;;22.55;13.05;;;;;;;;;;4968695;28;20047;-83
2021/09/15 11:03:25;;;;;;;25.08;14.27;;;;;;;;;;4969141;28;20113;-84
2021/09/15 11:05:52;;;;;;;22.30;15.20;;;;;;;;;;4968444;28;20058;-84
2021/09/15 11:08:20;;;;;;;26.88;14.70;;;;;;;;;;4969755;28;20090;-83
2021/09/15 11:10:47;;;;;;;25.63;13.88;;;;;;;;;;4968986;28;20106;-83
2021/09/15 11:13:16;;;;;;;22.50;13.95;;;;;;;;;;4963619;28;20055;-83
2021/09/15 11:15:44;;;;;;;23.00;14.80;;;;;;;;;;4972201;28;20105;-83
2021/09/15 11:18:21;;;;;;;29.02;15.38;;;;;;;;;;4972281;28;20106;-84
2021/09/15 11:21:02;;;;;;;29.55;14.45;;;;;;;;;;4971529;28;20463;-83
2021/09/15 11:23:30;;;;;;;22.92;14.15;;;;;;;;;;4967218;28;20051;-84
2021/09/15 11:25:58;;;;;;;23.63;14.60;;;;;;;;;;4964712;28;20078;-84
2021/09/15 11:28:25;;;;;;;22.10;13.90;;;;;;;;;;4953901;29;20054;-83
2021/09/15 11:30:52;;;;;;;18.83;13.25;;;;;;;;;;4969973;28;20109;-83
2021/09/15 11:33:27;;;;;;;24.52;13.95;;;;;;;;;;4972459;28;20129;-82
2021/09/15 11:35:58;;;;;;;23.40;14.00;;;;;;;;;;4972576;28;20130;-83
2021/09/15 11:38:26;;;;;;;20.80;13.75;;;;;;;;;;4972484;28;20130;-83
2021/09/15 11:41:04;;;;;;;24.65;13.85;;;;;;;;;;4972218;28;20082;-84
2021/09/15 11:43:31;;;;;;;20.48;14.50;;;;;;;;;;4972008;28;20138;-83
2021/09/15 11:45:58;;;;;;;20.98;13.50;;;;;;;;;;4972170;28;20045;-83
2021/09/15 11:48:26;;;;;;;19.85;14.15;;;;;;;;;;4971429;28;20082;-83
2021/09/15 11:50:56;;;;;;;23.08;13.95;;;;;;;;;;4972506;28;20086;-83
2021/09/15 11:53:25;;;;;;;22.75;14.63;;;;;;;;;;4965281;28;20490;-83
2021/09/15 11:56:01;;;;;;;21.80;14.60;;;;;;;;;;4963152;28;20134;-83
2021/09/15 11:58:29;;;;;;;30.40;14.50;;;;;;;;;;4972812;28;20535;-83
2021/09/15 12:00:57;;;;;;;28.17;14.43;;;;;;;;;;4972458;28;20404;-83
2021/09/15 12:03:27;;;;;;;24.42;14.57;;;;;;;;;;4970839;28;20043;-83
2021/09/15 12:05:57;;;;;;;28.73;14.75;;;;;;;;;;4972327;28;20074;-83
2021/09/15 12:08:24;;;;;;;22.35;14.13;;;;;;;;;;4972298;28;20756;-83
2021/09/15 12:10:55;;;;;;;28.48;14.90;;;;;;;;;;4970984;28;20145;-83
2021/09/15 12:13:30;;;;;;;22.23;14.60;;;;;;;;;;4971892;28;20086;-84
2021/09/15 12:15:58;;;;;;;26.20;16.15;;;;;;;;;;4972167;28;20130;-83
2021/09/15 12:18:37;;;;;;;21.55;13.95;;;;;;;;;;4964213;28;20089;-83
2021/09/15 12:21:06;;;;;;;28.98;16.20;;;;;;;;;;4972680;28;20134;-83
2021/09/15 12:23:35;;;;;;;23.50;15.65;;;;;;;;;;4973071;28;20081;-83
2021/09/15 12:26:02;;;;;;;23.70;14.90;;;;;;;;;;4975806;28;20544;-83
2021/09/15 12:28:30;;;;;;;22.63;14.40;;;;;;;;;;4976544;28;20142;-83
2021/09/15 12:30:58;;;;;;;30.13;15.35;;;;;;;;;;4975775;28;20054;-83
2021/09/15 12:33:30;;;;;;;20.90;14.90;;;;;;;;;;4974199;28;20471;-83
2021/09/15 12:36:16;;;;;;;22.30;14.98;;;;;;;;;;4973921;28;20608;-83
2021/09/15 12:38:57;;;;;;;21.75;14.63;;;;;;;;;;4974991;28;20074;-83
2021/09/15 12:41:25;;;;;;;27.27;15.70;;;;;;;;;;4975986;28;20532;-83
2021/09/15 12:44:24;;;;;;;24.88;16.60;;;;;;;;;;4975539;28;20523;-83
2021/09/15 12:46:53;;;;;;;30.60;16.90;;;;;;;;;;4962144;28;20092;-83
2021/09/15 12:49:31;;;;;;;24.52;15.45;;;;;;;;;;4956290;28;20089;-83
2021/09/15 12:52:14;;;;;;;22.77;15.43;;;;;;;;;;4966256;28;20061;-83
2021/09/15 12:54:52;;;;;;;22.88;14.60;;;;;;;;;;4966367;28;20149;-83
2021/09/15 12:57:33;;;;;;;28.48;15.10;;;;;;;;;;4975608;28;20790;-83
2021/09/15 13:00:23;;;;;;;23.75;14.60;;;;;;;;;;4974877;28;20073;-83
2021/09/15 13:02:57;;;;;;;21.00;14.18;;;;;;;;;;4956281;29;20147;-83
2021/09/15 13:05:24;;;;;;;24.37;15.33;;;;;;;;;;4974039;28;20059;-83
2021/09/15 13:07:55;;;;;;;31.92;16.00;;;;;;;;;;4974477;28;20328;-83
2021/09/15 13:10:22;;;;;;;25.67;16.58;;;;;;;;;;4974271;28;20543;-83
2021/09/15 13:12:50;;;;;;;26.77;16.17;;;;;;;;;;4975024;28;20046;-83
2021/09/15 13:15:17;;;;;;;31.08;16.52;;;;;;;;;;4972926;28;20055;-83
2021/09/15 13:17:47;;;;;;;24.38;15.75;;;;;;;;;;4961790;28;20503;-83
2021/09/15 13:20:14;;;;;;;28.48;17.45;;;;;;;;;;4973840;28;20130;-83
2021/09/15 13:22:43;;;;;;;26.88;17.88;;;;;;;;;;4974972;28;20082;-83
2021/09/15 13:25:11;;;;;;;29.90;17.20;;;;;;;;;;4975128;28;20078;-83
2021/09/15 13:27:38;;;;;;;24.77;15.95;;;;;;;;;;4975064;28;20133;-83
2021/09/15 13:30:06;;;;;;;21.73;16.27;;;;;;;;;;4973674;28;20133;-83
2021/09/15 13:32:34;;;;;;;29.95;17.48;;;;;;;;;;4974786;28;20058;-82
2021/09/15 13:35:02;;;;;;;27.50;16.70;;;;;;;;;;4974100;28;20766;-82
2021/09/15 13:37:29;;;;;;;28.05;17.55;;;;;;;;;;4974998;28;20093;-82
2021/09/15 13:39:58;;;;;;;26.15;17.00;;;;;;;;;;4974625;28;20090;-84
2021/09/15 13:42:25;;;;;;;29.45;18.20;;;;;;;;;;4974744;28;20054;-82
2021/09/15 13:44:53;;;;;;;30.98;18.67;;;;;;;;;;4972804;28;20102;-81
2021/09/15 13:47:20;;;;;;;27.48;16.67;;;;;;;;;;4958602;28;20078;-81
2021/09/15 13:49:47;;;;;;;36.25;18.42;;;;;;;;;;4973635;28;20050;-81
2021/09/15 13:52:14;;;;;;;26.10;18.17;;;;;;;;;;4965167;28;20086;-81
2021/09/15 13:54:51;;;;;;;35.80;19.30;;;;;;;;;;4955294;28;20382;-80
2021/09/15 13:57:18;;;;;;;30.73;19.55;;;;;;;;;;4953499;29;20074;-80
2021/09/15 13:59:45;;;;;;;32.08;19.67;;;;;;;;;;4959178;28;20097;-80
2021/09/15 14:02:13;;;;;;;31.67;18.80;;;;;;;;;;4956231;28;20055;-79
2021/09/15 14:04:40;;;;;;;35.05;21.08;;;;;;;;;;4954852;29;20106;-80
2021/09/15 14:07:07;;;;;;;34.92;21.33;;;;;;;;;;4966651;28;20042;-80
2021/09/15 14:09:34;;;;;;;30.95;20.67;;;;;;;;;;4972509;28;20055;-80
2021/09/15 14:12:22;;;;;;;35.55;23.08;;;;;;;;;;4973731;28;20145;-80
2021/09/15 14:14:49;;;;;;;41.10;22.85;;;;;;;;;;4973189;28;20078;-80
2021/09/15 14:17:16;;;;;;;42.00;23.05;;;;;;;;;;4965412;28;20078;-80
2021/09/15 14:19:43;;;;;;;36.53;22.50;;;;;;;;;;4973061;28;20137;-79
2021/09/15 14:22:11;;;;;;;36.47;23.50;;;;;;;;;;4962573;28;20485;-79
2021/09/15 14:24:43;;;;;;;40.90;24.58;;;;;;;;;;4954147;28;20062;-81
2021/09/15 14:27:10;;;;;;;36.63;23.77;;;;;;;;;;4966287;28;20781;-80
2021/09/15 14:29:37;;;;;;;37.42;23.17;;;;;;;;;;4973373;28;20475;-81
2021/09/15 14:32:04;;;;;;;42.83;24.27;;;;;;;;;;4973389;28;20066;-81
2021/09/15 14:34:32;;;;;;;39.95;25.40;;;;;;;;;;4973185;28;20058;-81